Latest Weather Observations for Padthaway

IDS60801

Issued at 3:31 am CST Friday 22 June 2018 (issued every 10 minutes, with the page automatically refreshed every 10 minutes)

About weather observations | Map of weather stations | Latest weather observations for SA | Other Formats
Station Details ID: 026100 Name: PADTHAWAY SOUTH Lat: -36.65 Lon: 140.52 Height: 37.0 m
Data from the previous 72 hours. | See also: Recent months at Padthaway
Date/Time
CST
Temp
°C
App
Temp
°C
Dew
Point
°C
Rel
Hum
%
Delta-T
°C
Wind Press
QNH
hPa
Press
MSL
hPa
Rain since
9am
mm
Dir  Spd
km/h
Gust
km/h
Spd
kts
Gust
kts
22/03:30am -0.3 -2.4 -1.0 95 0.2 CALM 0 0 0 0 - - 0.0
22/03:00am -0.2 -2.3 -0.9 95 0.2 CALM 0 0 0 0 - - 0.0
22/02:30am 0.0 -2.1 -0.7 95 0.2 CALM 0 0 0 0 - - 0.0
22/02:00am 0.1 -2.0 -0.6 95 0.3 CALM 0 0 0 0 - - 0.0
22/01:30am 0.6 -1.4 -0.1 95 0.3 CALM 0 0 0 0 - - 0.0
22/01:00am 0.6 -1.4 -0.1 95 0.3 CALM 0 0 0 0 - - 0.0
22/12:30am 1.0 -0.9 0.3 95 0.3 CALM 0 0 0 0 - - 0.0
22/12:00am 1.3 -0.6 0.6 95 0.3 CALM 0 0 0 0 - - 0.0
 
Date/Time
CST
Temp
°C
App
Temp
°C
Dew
Point
°C
Rel
Hum
%
Delta-T
°C
Wind Press
QNH
hPa
Press
MSL
hPa
Rain since
9am
mm
Dir  Spd
km/h
Gust
km/h
Spd
kts
Gust
kts
21/11:30pm 1.6 -0.3 0.7 94 0.3 CALM 0 0 0 0 - - 0.0
21/11:00pm 2.0 0.2 1.1 94 0.3 CALM 0 0 0 0 - - 0.0
21/10:30pm 2.2 0.4 1.3 94 0.3 CALM 0 0 0 0 - - 0.0
21/10:00pm 3.0 1.3 2.1 94 0.4 CALM 0 0 0 0 - - 0.0
21/09:30pm 3.2 1.6 2.2 93 0.4 CALM 0 0 0 0 - - 0.0
21/09:00pm 3.2 1.5 2.0 92 0.5 CALM 0 0 0 0 - - 0.0
21/08:30pm 3.6 1.9 2.1 90 0.6 CALM 0 0 0 0 - - 0.0
21/08:00pm 4.2 2.6 2.6 89 0.6 CALM 0 0 0 0 - - 0.0
21/07:30pm 4.8 3.3 2.8 87 0.8 CALM 0 0 0 0 - - 0.0
21/07:00pm 5.6 4.2 3.6 87 0.8 CALM 0 0 0 0 - - 0.0
21/06:30pm 6.8 5.5 3.9 82 1.2 CALM 0 0 0 0 - - 0.0
21/06:00pm 8.4 7.4 5.5 82 1.3 CALM 0 0 0 0 - - 0.0
21/05:30pm 10.1 9.0 5.1 71 2.3 CALM 0 0 0 0 - - 0.0
21/05:00pm 12.1 11.1 5.5 64 3.1 CALM 0 0 0 0 - - 0.0
21/04:30pm 13.8 13.0 6.4 61 3.6 CALM 0 0 0 0 - - 0.0
21/04:00pm 14.5 13.3 6.3 58 4.0 NW 2 11 1 6 - - 0.0
21/03:30pm 14.7 13.8 6.0 56 4.2 CALM 0 0 0 0 - - 0.0
21/03:00pm 14.8 14.0 6.4 57 4.1 CALM 0 0 0 0 - - 0.0
21/02:30pm 14.8 14.0 6.4 57 4.1 CALM 0 7 0 4 - - 0.0
21/02:00pm 14.4 13.6 6.5 59 3.8 CALM 0 0 0 0 - - 0.0
21/01:30pm 14.3 12.7 6.2 58 3.9 W 4 11 2 6 - - 0.0
21/01:00pm 14.1 12.8 6.2 59 3.8 SW 2 9 1 5 - - 0.0
21/12:30pm 14.2 13.4 6.3 59 3.8 CALM 0 0 0 0 - - 0.0
21/12:00pm 13.6 13.0 7.4 66 3.0 CALM 0 0 0 0 - - 0.0
21/11:30am 12.9 12.3 7.6 70 2.6 CALM 0 0 0 0 - - 0.0
21/11:00am 13.2 12.6 7.6 69 2.7 CALM 0 0 0 0 - - 0.0
21/10:30am 11.0 9.9 5.3 68 2.6 CALM 0 2 0 1 - - 0.0
21/10:00am 10.2 9.0 4.4 67 2.6 CALM 0 0 0 0 - - 0.0
21/09:30am 9.4 8.2 4.6 72 2.1 CALM 0 2 0 1 - - 0.0
21/09:00am 8.1 6.8 4.1 76 1.7 CALM 0 0 0 0 - - 0.0
21/08:30am 5.5 4.1 3.7 88 0.8 CALM 0 0 0 0 - - 0.0
21/08:00am 2.1 0.3 1.2 94 0.3 CALM 0 0 0 0 - - 0.0
21/07:30am 1.2 -0.8 0.2 93 0.4 CALM 0 0 0 0 - - 0.0
21/07:00am 1.2 -0.8 0.0 92 0.4 CALM 0 0 0 0 - - 0.0
21/06:30am 1.7 -0.2 0.4 91 0.5 CALM 0 0 0 0 - - 0.0
21/06:00am 2.3 0.4 0.8 90 0.6 CALM 0 0 0 0 - - 0.0
21/05:30am 2.8 1.0 1.2 89 0.6 CALM 0 0 0 0 - - 0.0
21/05:00am 3.9 2.2 2.1 88 0.7 CALM 0 0 0 0 - - 0.0
21/04:30am 5.3 3.7 2.5 82 1.1 CALM 0 0 0 0 - - 0.0
21/04:00am 7.3 5.9 3.5 77 1.6 CALM 0 0 0 0 - - 0.0
21/03:30am 7.7 6.4 4.3 79 1.5 CALM 0 0 0 0 - - 0.0
21/03:00am 7.7 6.4 4.3 79 1.5 CALM 0 0 0 0 - - 0.0
21/02:30am 7.7 6.4 4.3 79 1.5 CALM 0 0 0 0 - - 0.0
21/02:00am 7.3 6.1 4.4 82 1.3 CALM 0 0 0 0 - - 0.0
21/01:30am 7.2 6.1 4.9 85 1.0 CALM 0 0 0 0 - - 0.0
21/01:00am 7.6 6.3 4.0 78 1.6 CALM 0 0 0 0 - - 0.0
21/12:30am 7.7 6.4 3.9 77 1.6 CALM 0 0 0 0 - - 0.0
21/12:00am 7.1 5.7 3.7 79 1.5 CALM 0 0 0 0 - - 0.0
 
Date/Time
CST
Temp
°C
App
Temp
°C
Dew
Point
°C
Rel
Hum
%
Delta-T
°C
Wind Press
QNH
hPa
Press
MSL
hPa
Rain since
9am
mm
Dir  Spd
km/h
Gust
km/h
Spd
kts
Gust
kts
20/11:30pm 5.6 4.2 3.8 88 0.8 CALM 0 0 0 0 - - 0.0
20/11:00pm 4.1 2.6 2.9 92 0.5 CALM 0 0 0 0 - - 0.0
20/10:30pm 3.2 1.5 1.6 89 0.6 CALM 0 0 0 0 - - 0.0
20/10:00pm 3.7 2.0 1.7 87 0.8 CALM 0 0 0 0 - - 0.0
20/09:30pm 4.1 1.1 2.3 88 0.7 NNW 7 9 4 5 - - 0.0
20/09:00pm 4.8 1.5 2.3 84 1.0 N 9 13 5 7 - - 0.0
20/08:30pm 4.7 1.4 2.7 87 0.8 N 9 11 5 6 - - 0.0
20/08:00pm 2.9 1.2 1.6 91 0.5 CALM 0 0 0 0 - - 0.0
20/07:30pm 3.1 1.3 1.3 88 0.7 CALM 0 0 0 0 - - 0.0
20/07:00pm 3.7 2.0 1.6 86 0.8 CALM 0 0 0 0 - - 0.0
20/06:30pm 4.6 2.9 1.8 82 1.1 CALM 0 0 0 0 - - 0.0
20/06:00pm 5.7 4.1 2.7 81 1.2 CALM 0 0 0 0 - - 0.0
20/05:30pm 7.3 5.8 2.8 73 1.9 CALM 0 0 0 0 - - 0.0
20/05:00pm 10.2 8.9 3.9 65 2.8 CALM 0 0 0 0 - - 0.0
20/04:30pm 11.6 9.0 4.3 61 3.3 NNW 7 13 4 7 - - 0.0
20/04:00pm 12.5 9.5 4.0 56 3.8 NW 9 15 5 8 - - 0.0
20/03:30pm 12.3 7.7 3.5 55 3.9 N 17 20 9 11 - - 0.0
20/03:00pm 12.5 8.0 4.2 57 3.8 N 17 24 9 13 - - 0.0
20/02:30pm 12.4 7.9 4.4 58 3.6 NNW 17 22 9 12 - - 0.0
20/02:00pm 12.1 7.6 4.1 58 3.6 N 17 20 9 11 - - 0.0
20/01:30pm 12.0 7.6 4.7 61 3.3 NNW 17 22 9 12 - - 0.0
20/01:00pm 11.2 6.4 4.7 64 2.9 NNW 19 22 10 12 - - 0.0
20/12:30pm 10.8 6.4 4.5 65 2.8 NNW 17 24 9 13 - - 0.0
20/12:00pm 10.1 6.4 4.7 69 2.4 N 13 19 7 10 - - 0.0
20/11:30am 9.0 5.3 4.2 72 2.1 N 13 19 7 10 - - 0.0
20/11:00am 8.5 4.8 4.3 75 1.8 N 13 20 7 11 - - 0.0
20/10:30am 8.2 4.4 3.9 74 1.9 N 13 20 7 11 - - 0.0
20/10:00am 8.0 4.2 3.8 75 1.8 N 13 19 7 10 - - 0.0
20/09:30am 7.6 4.1 3.6 76 1.7 N 11 19 6 10 - - 0.0
20/09:00am 6.9 2.2 3.3 78 1.5 NNE 17 26 9 14 - - 0.0
20/08:30am 6.3 3.5 3.1 80 1.3 NNE 7 15 4 8 - - 0.0
20/08:00am 6.1 2.5 2.9 80 1.3 NNW 11 17 6 9 - - 0.0
20/07:30am 6.2 1.5 3.0 80 1.3 NNE 17 24 9 13 - - 0.0
20/07:00am 6.3 1.2 3.1 80 1.3 NNE 19 26 10 14 - - 0.0
20/06:30am 6.2 1.5 3.0 80 1.3 NNE 17 20 9 11 - - 0.0
20/06:00am 6.3 2.0 3.3 81 1.3 NNE 15 20 8 11 - - 0.0
20/05:30am 6.2 2.6 3.2 81 1.3 NNE 11 15 6 8 - - 0.0
20/05:00am 6.4 2.9 3.4 81 1.3 NNE 11 15 6 8 - - 0.0
20/04:30am 6.4 2.9 3.6 82 1.2 NNE 11 15 6 8 - - 0.0
20/04:00am 6.2 2.3 3.4 82 1.2 N 13 17 7 9 - - 0.0
20/03:30am 6.4 2.5 3.6 82 1.2 N 13 17 7 9 - - 0.0
20/03:00am 6.4 2.5 3.6 82 1.2 NNE 13 17 7 9 - - 0.0
20/02:30am 6.5 2.7 3.7 82 1.2 N 13 17 7 9 - - 0.0
20/02:00am 6.4 3.3 3.7 83 1.1 N 9 15 5 8 - - 0.0
20/01:30am 5.8 4.4 3.5 85 1.0 CALM 0 9 0 5 - - 0.0
20/01:00am 6.2 4.4 3.5 83 1.1 N 2 13 1 7 - - 0.0
20/12:30am 6.5 3.4 3.7 82 1.2 NNE 9 15 5 8 - - 0.0
20/12:00am 6.4 2.9 3.7 83 1.1 NNE 11 15 6 8 - - 0.0
 
Date/Time
CST
Temp
°C
App
Temp
°C
Dew
Point
°C
Rel
Hum
%
Delta-T
°C
Wind Press
QNH
hPa
Press
MSL
hPa
Rain since
9am
mm
Dir  Spd
km/h
Gust
km/h
Spd
kts
Gust
kts
19/11:30pm 6.4 3.7 3.7 83 1.1 NNE 7 15 4 8 - - 0.0
19/11:00pm 6.3 3.2 3.8 84 1.1 NE 9 13 5 7 - - 0.0
19/10:30pm 6.2 4.8 3.4 82 1.2 CALM 0 0 0 0 - - 0.0
19/10:00pm 7.5 5.1 4.1 79 1.5 NNE 6 13 3 7 - - 0.0
19/09:30pm 7.5 4.1 4.1 79 1.5 NNE 11 17 6 9 - - 0.0
19/09:00pm 7.6 4.6 4.2 79 1.5 NNW 9 15 5 8 - - 0.0
19/08:30pm 8.1 4.4 4.3 77 1.7 NNE 13 22 7 12 - - 0.0
19/08:00pm 7.6 3.5 4.6 81 1.3 NE 15 20 8 11 - - 0.0
19/07:30pm 6.5 4.4 3.8 83 1.1 NNE 4 9 2 5 - - 0.0
19/07:00pm 7.1 5.8 3.9 80 1.4 CALM 0 4 0 2 - - 0.0
19/06:30pm 7.6 4.6 4.2 79 1.5 NNE 9 11 5 6 - - 0.0
19/06:00pm 7.7 6.5 4.5 80 1.4 CALM 0 0 0 0 - - 0.0
19/05:30pm 8.0 6.8 4.6 79 1.5 CALM 0 0 0 0 - - 0.0
19/05:00pm 9.0 7.8 4.6 74 2.0 CALM 0 0 0 0 - - 0.0
19/04:30pm 9.9 7.0 4.7 70 2.3 N 9 15 5 8 - - 0.0
19/04:00pm 10.6 6.9 4.7 67 2.7 N 13 19 7 10 - - 0.0
19/03:30pm 11.0 6.6 4.7 65 2.9 N 17 20 9 11 - - 0.0
19/03:00pm 11.0 7.4 4.9 66 2.8 N 13 22 7 12 - - 0.0
19/02:30pm 11.0 6.6 4.9 66 2.8 N 17 24 9 13 - - 0.0
19/02:00pm 10.9 6.1 4.4 64 2.9 N 19 24 10 13 - - 0.0
19/01:30pm 11.7 7.3 4.7 62 3.2 N 17 26 9 14 - - 0.0
19/01:00pm 11.1 6.3 4.8 65 2.9 NNE 19 24 10 13 - - 0.0
19/12:30pm 11.0 6.6 4.5 64 2.9 N 17 26 9 14 - - 0.0
19/12:00pm 11.2 6.8 4.9 65 2.9 NNE 17 24 9 13 - - 0.0
19/11:30am 10.3 6.7 4.9 69 2.4 NNE 13 24 7 13 - - 0.0
19/11:00am 9.2 5.7 5.4 77 1.7 NNE 13 19 7 10 - - 0.0
19/10:30am 8.0 5.1 4.4 78 1.6 NE 9 15 5 8 - - 0.0
19/10:00am 8.0 5.5 4.8 80 1.4 NE 7 13 4 7 - - 0.0
19/09:30am 6.6 3.7 4.6 87 0.9 NE 9 13 5 7 - - 0.0
19/09:00am 5.2 4.1 5.1 99 0.0 CALM 0 0 0 0 - - 0.0
19/08:30am 1.6 -0.2 1.3 98 0.1 CALM 0 0 0 0 - - 0.0
19/08:00am 0.6 -1.4 0.2 97 0.1 CALM 0 0 0 0 - - 0.0
19/07:30am 0.0 -2.1 -0.6 96 0.2 CALM 0 0 0 0 - - 0.0
19/07:00am -0.3 -2.4 -0.9 96 0.2 CALM 0 0 0 0 - - 0.0
19/06:30am -0.5 -2.6 -1.1 96 0.2 CALM 0 0 0 0 - - 0.0
19/06:00am -0.4 -2.5 -1.1 95 0.2 CALM 0 0 0 0 - - 0.0
19/05:30am -0.6 -2.8 -1.3 95 0.2 CALM 0 0 0 0 - - 0.0
19/05:00am -0.1 -2.2 -0.8 95 0.2 CALM 0 0 0 0 - - 0.0
19/04:30am 0.1 -2.0 -0.6 95 0.3 CALM 0 0 0 0 - - 0.0
19/04:00am 0.3 -1.7 -0.4 95 0.2 CALM 0 0 0 0 - - 0.0

Other Formats:

Comma delimited format used in spreadsheet applications
http://www.bom.gov.au/fwo/IDS60801/IDS60801.95823.axf

JavaScript Object Notation format (JSON) in row-major order
http://www.bom.gov.au/fwo/IDS60801/IDS60801.95823.json